Time,TemperatureF,DewpointF,PressureIn,WindDirection,WindDirectionDegrees,WindSpeedMPH,WindSpeedGustMPH,Humidity,HourlyPrecipIn,Conditions,Clouds,dailyrainin,SoftwareType,DateUTC
2013-05-29 00:01:00,66.0,23.0,29.54,NNE,18,0.0,-999.0,19,-99.99,,,-99.99,,2013-05-29 07:01:00,
2013-05-29 00:11:00,66.0,23.0,29.54,NNE,18,0.0,-999.0,19,-99.99,,,-99.99,,2013-05-29 07:11:00,
2013-05-29 00:21:00,66.0,21.0,29.54,NW,313,1.0,-999.0,18,-99.99,,,-99.99,,2013-05-29 07:21:00,
2013-05-29 00:34:00,67.0,22.0,29.54,ESE,107,1.0,-999.0,18,-99.99,,,-99.99,,2013-05-29 07:34:00,
2013-05-29 00:42:00,67.0,22.0,29.54,ESE,107,1.0,-999.0,18,-99.99,,,-99.99,,2013-05-29 07:42:00,
2013-05-29 00:52:00,66.0,23.0,29.54,NE,44,0.0,-999.0,19,-99.99,,,-99.99,,2013-05-29 07:52:00,
2013-05-29 01:02:00,64.0,23.0,29.54,NE,44,0.0,-999.0,21,-99.99,,,-99.99,,2013-05-29 08:02:00,
2013-05-29 01:11:00,64.0,23.0,29.54,NE,44,0.0,-999.0,21,-99.99,,,-99.99,,2013-05-29 08:11:00,
2013-05-29 01:21:00,62.0,25.0,29.55,NE,45,0.0,-999.0,24,-99.99,,,-99.99,,2013-05-29 08:21:00,
2013-05-29 01:31:00,64.0,25.0,29.56,ENE,70,0.0,-999.0,23,-99.99,,,-99.99,,2013-05-29 08:31:00,
2013-05-29 01:41:00,64.0,25.0,29.56,ENE,70,0.0,-999.0,23,-99.99,,,-99.99,,2013-05-29 08:41:00,
2013-05-29 01:51:00,64.0,27.0,29.55,SW,215,1.0,-999.0,25,-99.99,,,-99.99,,2013-05-29 08:51:00,
2013-05-29 02:01:00,63.0,26.0,29.55,SW,215,0.0,-999.0,24,-99.99,,,-99.99,,2013-05-29 09:01:00,
2013-05-29 02:11:00,63.0,26.0,29.55,SW,215,0.0,-999.0,24,-99.99,,,-99.99,,2013-05-29 09:11:00,
2013-05-29 02:21:00,60.0,26.0,29.54,SW,215,0.0,-999.0,27,-99.99,,,-99.99,,2013-05-29 09:21:00,
2013-05-29 02:33:00,60.0,26.0,29.56,SW,215,0.0,-999.0,27,-99.99,,,-99.99,,2013-05-29 09:33:00,
2013-05-29 02:42:00,60.0,26.0,29.56,SW,215,0.0,-999.0,27,-99.99,,,-99.99,,2013-05-29 09:42:00,
2013-05-29 02:52:00,63.0,28.0,29.55,West,271,3.0,-999.0,26,-99.99,,,-99.99,,2013-05-29 09:52:00,
2013-05-29 03:02:00,62.0,26.0,29.55,West,270,0.0,-999.0,25,-99.99,,,-99.99,,2013-05-29 10:02:00,
2013-05-29 03:12:00,62.0,26.0,29.55,West,270,0.0,-999.0,25,-99.99,,,-99.99,,2013-05-29 10:12:00,
2013-05-29 03:22:00,60.0,26.0,29.56,West,271,0.0,-999.0,27,-99.99,,,-99.99,,2013-05-29 10:22:00,
2013-05-29 03:32:00,59.0,26.0,29.56,West,271,0.0,-999.0,28,-99.99,,,-99.99,,2013-05-29 10:32:00,
2013-05-29 03:42:00,59.0,26.0,29.56,West,271,0.0,-999.0,28,-99.99,,,-99.99,,2013-05-29 10:42:00,
2013-05-29 03:52:00,56.0,25.0,29.56,West,271,0.0,-999.0,30,-99.99,,,-99.99,,2013-05-29 10:52:00,
2013-05-29 04:02:00,56.0,25.0,29.56,West,271,0.0,-999.0,30,-99.99,,,-99.99,,2013-05-29 11:02:00,
2013-05-29 04:11:00,56.0,25.0,29.56,West,271,0.0,-999.0,30,-99.99,,,-99.99,,2013-05-29 11:11:00,
2013-05-29 04:21:00,55.0,26.0,29.56,West,271,0.0,-999.0,33,-99.99,,,-99.99,,2013-05-29 11:21:00,
2013-05-29 04:32:00,54.0,26.0,29.56,West,271,0.0,-999.0,34,-99.99,,,-99.99,,2013-05-29 11:32:00,
2013-05-29 04:42:00,54.0,26.0,29.56,West,271,0.0,-999.0,34,-99.99,,,-99.99,,2013-05-29 11:42:00,
2013-05-29 04:51:00,54.0,27.0,29.55,West,271,0.0,-999.0,35,-99.99,,,-99.99,,2013-05-29 11:51:00,
2013-05-29 05:01:00,53.0,27.0,29.55,West,271,0.0,-999.0,37,-99.99,,,-99.99,,2013-05-29 12:01:00,
2013-05-29 05:11:00,53.0,27.0,29.55,West,271,0.0,-999.0,37,-99.99,,,-99.99,,2013-05-29 12:11:00,
2013-05-29 05:21:00,53.0,27.0,29.56,West,271,0.0,-999.0,36,-99.99,,,-99.99,,2013-05-29 12:21:00,
2013-05-29 05:32:00,53.0,27.0,29.56,West,271,0.0,-999.0,36,-99.99,,,-99.99,,2013-05-29 12:32:00,
2013-05-29 05:42:00,53.0,27.0,29.56,West,271,0.0,-999.0,36,-99.99,,,-99.99,,2013-05-29 12:42:00,
2013-05-29 05:51:00,52.0,27.0,29.56,West,271,0.0,-999.0,37,-99.99,,,-99.99,,2013-05-29 12:51:00,
2013-05-29 06:01:00,52.0,27.0,29.57,West,271,0.0,-999.0,38,-99.99,,,-99.99,,2013-05-29 13:01:00,
2013-05-29 06:11:00,52.0,27.0,29.57,West,271,0.0,-999.0,38,-99.99,,,-99.99,,2013-05-29 13:11:00,
2013-05-29 06:21:00,51.0,28.0,29.57,West,271,0.0,-999.0,41,-99.99,,,-99.99,,2013-05-29 13:21:00,
2013-05-29 06:31:00,52.0,30.0,29.58,SW,215,0.0,-999.0,43,-99.99,,,-99.99,,2013-05-29 13:31:00,
2013-05-29 06:42:00,52.0,30.0,29.58,SW,215,0.0,-999.0,43,-99.99,,,-99.99,,2013-05-29 13:42:00,
2013-05-29 06:52:00,53.0,31.0,29.58,SW,215,0.0,-999.0,43,-99.99,,,-99.99,,2013-05-29 13:52:00,
2013-05-29 07:01:00,56.0,33.0,29.59,ESE,119,0.0,-999.0,41,-99.99,,,-99.99,,2013-05-29 14:01:00,
2013-05-29 07:11:00,56.0,33.0,29.59,ESE,119,0.0,-999.0,41,-99.99,,,-99.99,,2013-05-29 14:11:00,
2013-05-29 07:21:00,60.0,30.0,29.59,ESE,119,0.0,-999.0,32,-99.99,,,-99.99,,2013-05-29 14:21:00,
2013-05-29 07:32:00,63.0,29.0,29.60,ESE,119,0.0,-999.0,27,-99.99,,,-99.99,,2013-05-29 14:32:00,
2013-05-29 07:41:00,63.0,29.0,29.60,ESE,119,0.0,-999.0,27,-99.99,,,-99.99,,2013-05-29 14:41:00,
2013-05-29 07:52:00,65.0,28.0,29.60,ESE,113,0.0,-999.0,25,-99.99,,,-99.99,,2013-05-29 14:52:00,
2013-05-29 08:01:00,66.0,27.0,29.60,ENE,59,0.0,-999.0,23,-99.99,,,-99.99,,2013-05-29 15:01:00,
2013-05-29 08:11:00,66.0,27.0,29.60,ENE,59,0.0,-999.0,23,-99.99,,,-99.99,,2013-05-29 15:11:00,
2013-05-29 08:21:00,67.0,27.0,29.60,ENE,58,1.0,-999.0,22,-99.99,,,-99.99,,2013-05-29 15:21:00,
2013-05-29 08:32:00,68.0,28.0,29.60,NE,56,1.0,-999.0,22,-99.99,,,-99.99,,2013-05-29 15:32:00,
2013-05-29 08:42:00,68.0,28.0,29.60,NE,56,1.0,-999.0,22,-99.99,,,-99.99,,2013-05-29 15:42:00,
2013-05-29 08:53:00,70.0,27.0,29.60,ENE,57,1.0,-999.0,20,-99.99,,,-99.99,,2013-05-29 15:53:00,
2013-05-29 09:03:00,71.0,27.0,29.60,NE,46,0.0,-999.0,19,-99.99,,,-99.99,,2013-05-29 16:03:00,
2013-05-29 09:12:00,71.0,27.0,29.60,NE,46,0.0,-999.0,19,-99.99,,,-99.99,,2013-05-29 16:12:00,
2013-05-29 09:22:00,72.0,26.0,29.60,SW,233,1.0,-999.0,18,-99.99,,,-99.99,,2013-05-29 16:22:00,
2013-05-29 09:32:00,72.0,25.0,29.60,ENE,62,1.0,-999.0,17,-99.99,,,-99.99,,2013-05-29 16:32:00,
2013-05-29 09:42:00,72.0,25.0,29.60,ENE,62,1.0,-999.0,17,-99.99,,,-99.99,,2013-05-29 16:42:00,
2013-05-29 09:52:00,74.0,26.0,29.60,ESE,111,1.0,-999.0,17,-99.99,,,-99.99,,2013-05-29 16:52:00,
2013-05-29 10:02:00,74.0,26.0,29.60,ENE,69,0.0,-999.0,17,-99.99,,,-99.99,,2013-05-29 17:02:00,
2013-05-29 10:12:00,74.0,26.0,29.60,ENE,69,0.0,-999.0,17,-99.99,,,-99.99,,2013-05-29 17:12:00,
2013-05-29 10:22:00,74.0,25.0,29.59,ESE,107,2.0,-999.0,16,-99.99,,,-99.99,,2013-05-29 17:22:00,
2013-05-29 10:32:00,76.0,28.0,29.60,ENE,62,1.0,-999.0,17,-99.99,,,-99.99,,2013-05-29 17:32:00,
2013-05-29 10:42:00,76.0,28.0,29.60,ENE,62,1.0,-999.0,17,-99.99,,,-99.99,,2013-05-29 17:42:00,
2013-05-29 10:52:00,75.0,26.0,29.60,ENE,61,0.0,-999.0,16,-99.99,,,-99.99,,2013-05-29 17:52:00,
2013-05-29 11:01:00,79.0,27.0,29.60,NNE,19,1.0,-999.0,15,-99.99,,,-99.99,,2013-05-29 18:01:00,
2013-05-29 11:13:00,76.0,27.0,29.61,North,351,0.0,-999.0,16,-99.99,,,-99.99,,2013-05-29 18:13:00,
2013-05-29 11:21:00,76.0,27.0,29.61,North,351,0.0,-999.0,16,-99.99,,,-99.99,,2013-05-29 18:21:00,
2013-05-29 11:32:00,79.0,27.0,29.59,NE,56,1.0,-999.0,15,-99.99,,,-99.99,,2013-05-29 18:32:00,
2013-05-29 11:41:00,79.0,27.0,29.59,NE,56,1.0,-999.0,15,-99.99,,,-99.99,,2013-05-29 18:41:00,
2013-05-29 11:51:00,77.0,27.0,29.59,SSW,200,2.0,-999.0,16,-99.99,,,-99.99,,2013-05-29 18:51:00,
2013-05-29 12:01:00,80.0,28.0,29.59,NE,38,1.0,-999.0,15,-99.99,,,-99.99,,2013-05-29 19:01:00,
2013-05-29 12:11:00,81.0,27.0,29.59,NNE,29,1.0,-999.0,14,-99.99,,,-99.99,,2013-05-29 19:11:00,
2013-05-29 12:21:00,81.0,27.0,29.59,NNE,29,1.0,-999.0,14,-99.99,,,-99.99,,2013-05-29 19:21:00,
2013-05-29 12:32:00,82.0,28.0,29.58,NNE,14,2.0,-999.0,14,-99.99,,,-99.99,,2013-05-29 19:32:00,
2013-05-29 12:44:00,82.0,28.0,29.58,NNE,14,2.0,-999.0,14,-99.99,,,-99.99,,2013-05-29 19:44:00,
2013-05-29 12:52:00,81.0,26.0,29.58,NE,36,1.0,-999.0,13,-99.99,,,-99.99,,2013-05-29 19:52:00,
2013-05-29 13:02:00,82.0,26.0,29.57,ESE,106,0.0,-999.0,13,-99.99,,,-99.99,,2013-05-29 20:02:00,
2013-05-29 13:11:00,82.0,26.0,29.57,ESE,106,0.0,-999.0,13,-99.99,,,-99.99,,2013-05-29 20:11:00,
2013-05-29 13:22:00,84.0,26.0,29.57,ENE,65,3.0,-999.0,12,-99.99,,,-99.99,,2013-05-29 20:22:00,
2013-05-29 13:32:00,84.0,26.0,29.57,NW,311,6.0,-999.0,12,-99.99,,,-99.99,,2013-05-29 20:32:00,
2013-05-29 13:42:00,84.0,26.0,29.57,NW,311,6.0,-999.0,12,-99.99,,,-99.99,,2013-05-29 20:42:00,
2013-05-29 13:52:00,84.0,26.0,29.56,North,360,4.0,-999.0,12,-99.99,,,-99.99,,2013-05-29 20:52:00,
2013-05-29 14:02:00,83.0,25.0,29.56,West,271,3.0,-999.0,12,-99.99,,,-99.99,,2013-05-29 21:02:00,
2013-05-29 14:12:00,83.0,25.0,29.56,West,271,3.0,-999.0,12,-99.99,,,-99.99,,2013-05-29 21:12:00,
2013-05-29 14:22:00,83.0,25.0,29.56,WNW,299,4.0,-999.0,12,-99.99,,,-99.99,,2013-05-29 21:22:00,
2013-05-29 14:33:00,84.0,26.0,29.55,SW,223,6.0,-999.0,12,-99.99,,,-99.99,,2013-05-29 21:33:00,
2013-05-29 14:43:00,84.0,26.0,29.55,SW,223,6.0,-999.0,12,-99.99,,,-99.99,,2013-05-29 21:43:00,
2013-05-29 14:53:00,83.0,23.0,29.55,SSW,205,7.0,-999.0,11,-99.99,,,-99.99,,2013-05-29 21:53:00,
2013-05-29 15:03:00,84.0,22.0,29.55,West,260,9.0,-999.0,10,-99.99,,,-99.99,,2013-05-29 22:03:00,
2013-05-29 15:12:00,84.0,22.0,29.55,West,260,9.0,-999.0,10,-99.99,,,-99.99,,2013-05-29 22:12:00,
2013-05-29 15:22:00,85.0,25.0,29.55,NNW,329,7.0,-999.0,11,-99.99,,,-99.99,,2013-05-29 22:22:00,
2013-05-29 15:33:00,84.0,26.0,29.55,WNW,301,8.0,-999.0,12,-99.99,,,-99.99,,2013-05-29 22:33:00,
2013-05-29 15:42:00,84.0,26.0,29.54,West,276,9.0,-999.0,12,-99.99,,,-99.99,,2013-05-29 22:42:00,
2013-05-29 15:53:00,84.0,26.0,29.54,West,276,9.0,-999.0,12,-99.99,,,-99.99,,2013-05-29 22:53:00,
2013-05-29 16:02:00,84.0,28.0,29.53,NW,317,6.0,-999.0,13,-99.99,,,-99.99,,2013-05-29 23:02:00,
2013-05-29 16:12:00,84.0,28.0,29.53,NW,317,6.0,-999.0,13,-99.99,,,-99.99,,2013-05-29 23:12:00,
2013-05-29 16:21:00,84.0,26.0,29.54,WNW,294,6.0,-999.0,12,-99.99,,,-99.99,,2013-05-29 23:21:00,
2013-05-29 16:33:00,83.0,25.0,29.53,West,275,8.0,-999.0,12,-99.99,,,-99.99,,2013-05-29 23:33:00,
2013-05-29 16:42:00,84.0,26.0,29.53,West,279,6.0,-999.0,12,-99.99,,,-99.99,,2013-05-29 23:42:00,
2013-05-29 16:52:00,84.0,26.0,29.53,West,279,6.0,-999.0,12,-99.99,,,-99.99,,2013-05-29 23:52:00,
2013-05-29 17:01:00,84.0,26.0,29.53,NW,314,6.0,-999.0,12,-99.99,,,-99.99,,2013-05-30 00:01:00,
2013-05-29 17:11:00,84.0,26.0,29.53,NW,314,6.0,-999.0,12,-99.99,,,-99.99,,2013-05-30 00:11:00,
2013-05-29 17:21:00,82.0,24.0,29.53,West,266,7.0,-999.0,12,-99.99,,,-99.99,,2013-05-30 00:21:00,
2013-05-29 17:31:00,82.0,24.0,29.54,West,265,6.0,-999.0,12,-99.99,,,-99.99,,2013-05-30 00:31:00,
2013-05-29 17:41:00,82.0,24.0,29.54,West,265,6.0,-999.0,12,-99.99,,,-99.99,,2013-05-30 00:41:00,
2013-05-29 17:52:00,82.0,24.0,29.53,NW,311,7.0,-999.0,12,-99.99,,,-99.99,,2013-05-30 00:52:00,
2013-05-29 18:01:00,81.0,26.0,29.54,West,279,8.0,-999.0,13,-99.99,,,-99.99,,2013-05-30 01:01:00,
2013-05-29 18:11:00,81.0,26.0,29.54,West,279,8.0,-999.0,13,-99.99,,,-99.99,,2013-05-30 01:11:00,
2013-05-29 18:21:00,80.0,27.0,29.54,SW,229,8.0,-999.0,14,-99.99,,,-99.99,,2013-05-30 01:21:00,
2013-05-29 18:31:00,80.0,28.0,29.54,West,273,4.0,-999.0,15,-99.99,,,-99.99,,2013-05-30 01:31:00,
2013-05-29 18:41:00,80.0,28.0,29.54,West,273,4.0,-999.0,15,-99.99,,,-99.99,,2013-05-30 01:41:00,
2013-05-29 18:52:00,79.0,27.0,29.54,WNW,287,5.0,-999.0,15,-99.99,,,-99.99,,2013-05-30 01:52:00,
2013-05-29 19:01:00,78.0,27.0,29.55,West,273,6.0,-999.0,15,-99.99,,,-99.99,,2013-05-30 02:01:00,
2013-05-29 19:11:00,78.0,27.0,29.55,West,273,6.0,-999.0,15,-99.99,,,-99.99,,2013-05-30 02:11:00,
2013-05-29 19:21:00,77.0,27.0,29.55,West,266,4.0,-999.0,16,-99.99,,,-99.99,,2013-05-30 02:21:00,
2013-05-29 19:32:00,76.0,27.0,29.56,WSW,246,3.0,-999.0,16,-99.99,,,-99.99,,2013-05-30 02:32:00,
2013-05-29 19:42:00,76.0,27.0,29.56,WSW,246,3.0,-999.0,16,-99.99,,,-99.99,,2013-05-30 02:42:00,
2013-05-29 19:52:00,76.0,27.0,29.56,WSW,246,3.0,-999.0,16,-99.99,,,-99.99,,2013-05-30 02:52:00,
2013-05-29 20:01:00,74.0,28.0,29.56,West,260,1.0,-999.0,18,-99.99,,,-99.99,,2013-05-30 03:01:00,
2013-05-29 20:11:00,74.0,26.0,29.57,WSW,252,5.0,-999.0,17,-99.99,,,-99.99,,2013-05-30 03:11:00,
2013-05-29 20:21:00,74.0,26.0,29.57,WSW,252,5.0,-999.0,17,-99.99,,,-99.99,,2013-05-30 03:21:00,
2013-05-29 20:33:00,74.0,28.0,29.57,WSW,250,4.0,-999.0,18,-99.99,,,-99.99,,2013-05-30 03:33:00,
2013-05-29 20:43:00,74.0,28.0,29.57,WSW,250,4.0,-999.0,18,-99.99,,,-99.99,,2013-05-30 03:43:00,
2013-05-29 20:53:00,74.0,29.0,29.57,WSW,251,5.0,-999.0,19,-99.99,,,-99.99,,2013-05-30 03:53:00,
2013-05-29 21:02:00,74.0,29.0,29.57,SW,222,4.0,-999.0,19,-99.99,,,-99.99,,2013-05-30 04:02:00,
2013-05-29 21:12:00,74.0,29.0,29.57,SW,222,4.0,-999.0,19,-99.99,,,-99.99,,2013-05-30 04:12:00,
2013-05-29 21:23:00,73.0,30.0,29.57,WSW,239,1.0,-999.0,20,-99.99,,,-99.99,,2013-05-30 04:23:00,
2013-05-29 21:32:00,73.0,28.0,29.57,NW,309,3.0,-999.0,19,-99.99,,,-99.99,,2013-05-30 04:32:00,
2013-05-29 21:42:00,73.0,28.0,29.57,NW,309,3.0,-999.0,19,-99.99,,,-99.99,,2013-05-30 04:42:00,
2013-05-29 21:53:00,73.0,30.0,29.59,West,271,4.0,-999.0,20,-99.99,,,-99.99,,2013-05-30 04:53:00,
2013-05-29 22:02:00,73.0,31.0,29.59,NW,306,3.0,-999.0,21,-99.99,,,-99.99,,2013-05-30 05:02:00,
2013-05-29 22:12:00,73.0,31.0,29.59,NW,306,3.0,-999.0,21,-99.99,,,-99.99,,2013-05-30 05:12:00,
2013-05-29 22:21:00,72.0,32.0,29.58,WNW,295,2.0,-999.0,23,-99.99,,,-99.99,,2013-05-30 05:21:00,
2013-05-29 22:32:00,72.0,32.0,29.59,NNW,331,2.0,-999.0,23,-99.99,,,-99.99,,2013-05-30 05:32:00,
2013-05-29 22:42:00,72.0,32.0,29.59,NNW,331,2.0,-999.0,23,-99.99,,,-99.99,,2013-05-30 05:42:00,
2013-05-29 22:52:00,72.0,32.0,29.59,NW,306,2.0,-999.0,23,-99.99,,,-99.99,,2013-05-30 05:52:00,
2013-05-29 23:01:00,70.0,33.0,29.59,NW,307,0.0,-999.0,25,-99.99,,,-99.99,,2013-05-30 06:01:00,
2013-05-29 23:12:00,70.0,33.0,29.59,NW,307,0.0,-999.0,25,-99.99,,,-99.99,,2013-05-30 06:12:00,
2013-05-29 23:21:00,69.0,31.0,29.60,NW,306,0.0,-999.0,24,-99.99,,,-99.99,,2013-05-30 06:21:00,
2013-05-29 23:32:00,71.0,36.0,29.59,West,281,3.0,-999.0,28,-99.99,,,-99.99,,2013-05-30 06:32:00,
2013-05-29 23:42:00,71.0,36.0,29.59,West,281,3.0,-999.0,28,-99.99,,,-99.99,,2013-05-30 06:42:00,
2013-05-29 23:51:00,71.0,34.0,29.60,West,279,1.0,-999.0,26,-99.99,,,-99.99,,2013-05-30 06:51:00,